createdAt,value
2022-08-18T00:01:45.497Z,21.60
2022-08-18T00:04:35.306Z,21.20
2022-08-18T00:07:07.324Z,20.50
2022-08-18T00:09:38.955Z,19.80
2022-08-18T00:12:13.775Z,22.10
2022-08-18T00:14:43.644Z,18.10
2022-08-18T00:17:14.052Z,19.20
2022-08-18T00:19:47.793Z,19.50
2022-08-18T00:22:20.264Z,18.50
2022-08-18T00:24:52.630Z,17.50
2022-08-18T00:27:28.220Z,18.50
2022-08-18T00:29:59.955Z,18.40
2022-08-18T00:32:33.208Z,17.70
2022-08-18T00:35:09.772Z,18.30
2022-08-18T00:37:39.563Z,18.10
2022-08-18T00:40:12.738Z,19.10
2022-08-18T00:42:47.940Z,20.00
2022-08-18T00:45:22.773Z,20.60
2022-08-18T00:47:52.932Z,18.90
2022-08-18T00:50:27.944Z,20.00
2022-08-18T00:53:03.505Z,22.00
2022-08-18T00:55:33.901Z,20.80
2022-08-18T00:58:10.566Z,20.60
2022-08-18T01:00:40.401Z,21.60
2022-08-18T01:03:14.382Z,23.00
2022-08-18T01:05:49.189Z,22.70
2022-08-18T01:08:28.826Z,22.20
2022-08-18T01:11:02.422Z,18.80
2022-08-18T01:13:34.062Z,21.00
2022-08-18T01:16:24.067Z,21.00
2022-08-18T01:19:08.634Z,21.90
2022-08-18T01:21:53.118Z,22.10
2022-08-18T01:24:46.721Z,20.50
2022-08-18T01:27:18.530Z,21.20
2022-08-18T01:29:50.362Z,22.40
2022-08-18T01:32:23.629Z,22.90
2022-08-18T01:34:54.702Z,24.00
2022-08-18T01:37:25.773Z,23.40
2022-08-18T01:41:21.303Z,25.80
2022-08-18T01:42:46.162Z,25.10
2022-08-18T01:45:18.454Z,25.00
2022-08-18T01:47:50.299Z,26.20
2022-08-18T01:50:20.243Z,26.00
2022-08-18T01:52:53.143Z,25.80
2022-08-18T01:57:51.790Z,24.50
2022-08-18T02:00:21.913Z,24.20
2022-08-18T02:03:01.968Z,24.20
2022-08-18T02:05:37.112Z,24.00
2022-08-18T02:08:08.034Z,24.90
2022-08-18T02:10:38.494Z,24.80
2022-08-18T02:13:08.393Z,24.30
2022-08-18T02:15:38.062Z,23.80
2022-08-18T02:18:37.172Z,25.00
2022-08-18T02:21:11.227Z,24.70
2022-08-18T02:23:44.945Z,25.10
2022-08-18T02:26:23.921Z,25.70
2022-08-18T02:28:54.074Z,25.40
2022-08-18T02:31:25.815Z,25.60
2022-08-18T02:33:56.794Z,25.80
2022-08-18T02:36:26.495Z,26.20
2022-08-18T02:38:59.957Z,27.10
2022-08-18T02:41:30.833Z,27.60
2022-08-18T02:44:00.870Z,24.00
2022-08-18T02:46:31.296Z,25.70
2022-08-18T02:49:01.846Z,27.30
2022-08-18T02:51:31.887Z,27.60
2022-08-18T02:54:01.730Z,27.40
2022-08-18T02:56:40.551Z,30.30
2022-08-18T02:59:14.770Z,29.60
2022-08-18T03:01:46.371Z,30.50
2022-08-18T03:04:19.383Z,29.90
2022-08-18T03:06:49.383Z,31.10
2022-08-18T03:09:20.093Z,31.20
2022-08-18T03:11:50.189Z,31.50
2022-08-18T03:14:19.942Z,32.20
2022-08-18T03:16:53.652Z,32.60
2022-08-18T03:19:25.450Z,31.80
2022-08-18T03:21:57.229Z,34.20
2022-08-18T03:24:29.974Z,34.10
2022-08-18T03:27:00.168Z,33.70
2022-08-18T03:29:32.795Z,34.30
2022-08-18T03:32:04.914Z,31.70
2022-08-18T03:34:34.692Z,33.60
2022-08-18T03:37:05.223Z,35.20
2022-08-18T03:39:35.014Z,32.60
2022-08-18T03:42:05.192Z,32.00
2022-08-18T03:44:37.065Z,31.70
2022-08-18T03:47:09.749Z,35.40
2022-08-18T03:49:39.724Z,34.10
2022-08-18T03:52:10.767Z,33.40
2022-08-18T03:54:41.035Z,35.20
2022-08-18T03:57:12.195Z,31.00
2022-08-18T03:59:43.048Z,33.80
2022-08-18T04:02:12.928Z,31.90
2022-08-18T04:04:43.230Z,32.00
2022-08-18T04:07:16.554Z,31.30
2022-08-18T04:12:17.156Z,29.10
2022-08-18T04:14:49.787Z,27.70
2022-08-18T04:17:24.520Z,29.60
2022-08-18T04:19:55.136Z,28.20
2022-08-18T04:22:25.971Z,27.40
2022-08-18T04:24:56.302Z,27.10
2022-08-18T04:27:28.462Z,28.30
2022-08-18T04:29:59.470Z,27.20
2022-08-18T04:32:31.479Z,29.90
2022-08-18T04:35:02.810Z,29.20
2022-08-18T04:37:33.224Z,28.20
2022-08-18T04:40:13.958Z,27.90
2022-08-18T04:42:44.417Z,27.80
2022-08-18T04:45:14.178Z,27.20
2022-08-18T04:47:43.702Z,26.30
2022-08-18T04:50:14.590Z,28.70
2022-08-18T04:53:02.512Z,26.60
2022-08-18T04:55:32.320Z,25.80
2022-08-18T04:58:02.101Z,26.20
2022-08-18T05:00:31.990Z,27.10
2022-08-18T05:03:01.511Z,26.60
2022-08-18T05:05:31.030Z,27.40
2022-08-18T05:08:00.801Z,26.70
2022-08-18T05:10:30.493Z,26.00
2022-08-18T05:13:00.713Z,25.20
2022-08-18T05:15:46.917Z,23.30
2022-08-18T05:18:23.853Z,22.10
2022-08-18T05:20:58.420Z,23.00
2022-08-18T05:23:29.686Z,24.80
2022-08-18T05:26:01.093Z,24.10
2022-08-18T05:28:31.241Z,24.20
2022-08-18T05:31:06.662Z,23.50
2022-08-18T05:33:39.711Z,24.10
2022-08-18T05:36:28.810Z,23.00
2022-08-18T05:39:06.903Z,19.90
2022-08-18T05:41:39.671Z,19.90
2022-08-18T05:44:13.996Z,19.90
2022-08-18T05:46:49.083Z,19.20
2022-08-18T05:49:20.293Z,18.70
2022-08-18T05:51:52.977Z,18.50
2022-08-18T05:54:42.895Z,17.20
2022-08-18T05:57:17.620Z,19.70
2022-08-18T05:59:49.182Z,17.70
2022-08-18T06:02:31.116Z,18.20
2022-08-18T06:05:03.671Z,18.50
2022-08-18T06:07:37.801Z,18.00
2022-08-18T06:10:12.113Z,17.30
2022-08-18T06:12:47.215Z,15.70
2022-08-18T06:15:39.687Z,16.70
2022-08-18T06:18:37.886Z,16.90
2022-08-18T06:21:29.819Z,18.20
2022-08-18T06:24:11.620Z,17.50
2022-08-18T06:26:50.946Z,18.90
2022-08-18T06:29:37.541Z,17.30
2022-08-18T06:32:17.433Z,18.20
2022-08-18T06:35:03.691Z,15.90
2022-08-18T06:38:00.697Z,15.10
2022-08-18T06:40:30.969Z,15.40
2022-08-18T06:43:02.255Z,15.80
2022-08-18T06:45:39.890Z,14.90
2022-08-18T06:48:29.251Z,16.70
2022-08-18T06:51:02.080Z,16.60
2022-08-18T06:56:26.989Z,15.90
2022-08-18T06:59:15.800Z,16.10
2022-08-18T07:01:47.243Z,16.40
2022-08-18T07:04:42.022Z,16.00
2022-08-18T07:07:40.226Z,15.80
2022-08-18T07:10:32.240Z,15.00
2022-08-18T07:13:20.823Z,15.40
2022-08-18T07:15:51.321Z,14.10
2022-08-18T07:18:27.101Z,14.50
2022-08-18T07:20:59.322Z,14.90
2022-08-18T07:23:34.292Z,14.30
2022-08-18T07:26:10.012Z,16.00
2022-08-18T07:28:44.066Z,14.70
2022-08-18T07:31:25.125Z,14.80
2022-08-18T07:33:59.951Z,14.90
2022-08-18T07:36:36.026Z,14.80
2022-08-18T07:39:14.863Z,14.60
2022-08-18T07:41:52.779Z,12.80
2022-08-18T07:44:33.603Z,13.70
2022-08-18T07:47:07.691Z,13.10
2022-08-18T07:49:54.493Z,12.80
2022-08-18T07:52:44.327Z,13.20
2022-08-18T07:55:26.821Z,12.50
2022-08-18T07:58:05.338Z,13.00
2022-08-18T08:00:59.944Z,12.10
2022-08-18T08:03:40.772Z,12.30
2022-08-18T08:06:19.820Z,11.90
2022-08-18T08:09:00.612Z,11.80
2022-08-18T08:11:44.591Z,13.10
2022-08-18T08:14:29.424Z,14.60
2022-08-18T08:17:06.858Z,12.70
2022-08-18T08:20:00.546Z,14.00
2022-08-18T08:22:36.013Z,12.60
2022-08-18T08:25:28.653Z,12.90
2022-08-18T08:28:11.994Z,12.00
2022-08-18T08:30:48.572Z,12.70
2022-08-18T08:33:27.283Z,13.10
2022-08-18T08:36:09.927Z,12.80
2022-08-18T08:38:45.531Z,12.00
2022-08-18T08:41:41.041Z,12.30
2022-08-18T08:44:18.390Z,11.20
2022-08-18T08:46:53.015Z,11.00
2022-08-18T08:49:33.910Z,11.50
2022-08-18T08:52:10.497Z,11.70
2022-08-18T08:54:51.203Z,12.10
2022-08-18T08:57:26.700Z,11.50
2022-08-18T09:00:07.731Z,11.10
2022-08-18T09:03:00.685Z,11.90
2022-08-18T09:05:36.275Z,11.80
2022-08-18T09:08:31.666Z,10.70
2022-08-18T09:11:44.598Z,10.60
2022-08-18T09:14:33.532Z,11.40
2022-08-18T09:17:23.462Z,10.90
2022-08-18T09:20:16.744Z,10.30
2022-08-18T09:22:52.021Z,10.10
2022-08-18T09:25:54.278Z,9.90
2022-08-18T09:28:56.191Z,10.40
2022-08-18T09:31:31.633Z,9.40
2022-08-18T09:34:25.561Z,10.00
2022-08-18T09:37:15.685Z,10.00
2022-08-18T09:40:14.073Z,9.90
2022-08-18T09:42:52.703Z,10.90
2022-08-18T09:45:57.607Z,10.10
2022-08-18T09:48:30.583Z,9.90
2022-08-18T09:51:23.346Z,10.50
2022-08-18T09:54:12.925Z,10.00
2022-08-18T09:57:19.539Z,9.50
2022-08-18T10:00:11.554Z,10.20
2022-08-18T10:03:25.731Z,9.70
2022-08-18T10:06:20.658Z,10.00
2022-08-18T10:09:27.104Z,10.50
2022-08-18T10:12:29.714Z,9.00
2022-08-18T10:17:52.893Z,8.50
2022-08-18T10:20:37.301Z,9.50
2022-08-18T10:23:08.013Z,9.30
2022-08-18T10:25:42.211Z,9.50
2022-08-18T10:28:34.084Z,8.80
2022-08-18T10:31:10.014Z,9.10
2022-08-18T10:34:05.554Z,9.40
2022-08-18T10:36:52.211Z,8.90
2022-08-18T10:39:27.738Z,8.80
2022-08-18T10:42:14.861Z,8.90
2022-08-18T10:44:47.365Z,9.30
2022-08-18T10:47:24.971Z,9.40
2022-08-18T10:49:55.669Z,10.00
2022-08-18T10:53:35.342Z,9.10
2022-08-18T10:56:02.524Z,8.90
2022-08-18T10:59:04.577Z,8.90
2022-08-18T11:01:50.282Z,9.00
2022-08-18T11:04:36.672Z,8.70
2022-08-18T11:07:11.062Z,8.00
2022-08-18T11:09:51.016Z,8.50
2022-08-18T11:12:55.854Z,8.20
2022-08-18T11:15:38.276Z,8.10
2022-08-18T11:18:19.903Z,8.90
2022-08-18T11:20:52.060Z,8.30
2022-08-18T11:23:22.207Z,8.00
2022-08-18T11:25:58.702Z,8.20
2022-08-18T11:28:31.823Z,7.30
2022-08-18T11:31:02.580Z,8.20
2022-08-18T11:33:42.177Z,7.50
2022-08-18T11:36:17.194Z,7.30
2022-08-18T11:38:56.433Z,8.40
2022-08-18T11:41:48.186Z,8.10
2022-08-18T11:44:24.639Z,7.40
2022-08-18T11:47:08.971Z,7.20
2022-08-18T11:49:45.852Z,7.50
2022-08-18T11:52:29.544Z,7.60
2022-08-18T11:55:14.755Z,8.00
2022-08-18T11:57:59.187Z,7.20
2022-08-18T12:00:54.821Z,7.10
2022-08-18T12:03:37.773Z,7.30
2022-08-18T12:06:21.925Z,6.90
2022-08-18T12:09:01.990Z,7.80
2022-08-18T12:11:35.370Z,7.00
2022-08-18T12:14:31.832Z,7.10
2022-08-18T12:17:01.453Z,7.00
2022-08-18T12:19:34.640Z,7.10
2022-08-18T12:22:16.032Z,6.50
2022-08-18T12:27:23.231Z,7.80
2022-08-18T12:29:55.441Z,7.10
2022-08-18T12:32:49.152Z,7.10
2022-08-18T12:35:21.813Z,7.40
2022-08-18T12:38:11.088Z,6.30
2022-08-18T12:40:42.646Z,7.20
2022-08-18T12:43:12.632Z,7.50
2022-08-18T12:45:44.433Z,8.50
2022-08-18T12:48:14.287Z,8.20
2022-08-18T12:53:58.037Z,7.00
2022-08-18T12:56:30.037Z,7.10
2022-08-18T12:59:04.332Z,6.60
2022-08-18T13:01:36.013Z,6.20
2022-08-18T13:04:12.433Z,6.60
2022-08-18T13:07:00.305Z,6.80
2022-08-18T13:09:34.658Z,6.30
2022-08-18T13:12:16.371Z,6.70
2022-08-18T13:14:47.413Z,6.60
2022-08-18T13:17:29.754Z,7.20
2022-08-18T13:20:09.076Z,6.90
2022-08-18T13:22:40.632Z,6.10
2022-08-18T13:25:12.922Z,6.50
2022-08-18T13:27:59.008Z,6.90
2022-08-18T13:30:30.252Z,7.00
2022-08-18T13:33:05.770Z,7.00
2022-08-18T13:35:54.813Z,6.20
2022-08-18T13:38:27.625Z,6.10
2022-08-18T13:41:01.000Z,6.10
2022-08-18T13:43:35.738Z,6.20
2022-08-18T13:46:09.061Z,6.10
2022-08-18T13:48:41.427Z,6.60
2022-08-18T13:51:19.867Z,6.10
2022-08-18T13:53:59.045Z,5.90
2022-08-18T13:56:39.922Z,6.30
2022-08-18T13:59:10.042Z,5.90
2022-08-18T14:01:44.349Z,6.20
2022-08-18T14:04:27.774Z,5.90
2022-08-18T14:06:59.951Z,5.80
2022-08-18T14:09:37.068Z,6.40
2022-08-18T14:12:22.750Z,6.50
2022-08-18T14:14:55.045Z,6.40
2022-08-18T14:17:25.993Z,6.70
2022-08-18T14:20:21.833Z,5.30
2022-08-18T14:23:14.231Z,6.10
2022-08-18T14:26:21.342Z,6.10
2022-08-18T14:28:53.882Z,6.30
2022-08-18T14:31:23.983Z,6.50
2022-08-18T14:33:55.516Z,6.10
2022-08-18T14:36:29.791Z,6.20
2022-08-18T14:39:01.108Z,6.20
2022-08-18T14:41:31.821Z,6.50
2022-08-18T14:44:13.646Z,6.40
2022-08-18T14:46:54.118Z,6.00
2022-08-18T14:49:28.506Z,6.30
2022-08-18T14:52:00.524Z,5.80
2022-08-18T14:54:31.474Z,6.30
2022-08-18T14:57:05.269Z,6.00
2022-08-18T14:59:37.968Z,6.50
2022-08-18T15:02:13.117Z,6.20
2022-08-18T15:04:55.927Z,6.50
2022-08-18T15:07:27.818Z,5.80
2022-08-18T15:10:15.075Z,5.40
2022-08-18T15:12:46.717Z,5.80
2022-08-18T15:15:18.043Z,5.90
2022-08-18T15:17:50.364Z,5.70
2022-08-18T15:20:29.486Z,6.10
2022-08-18T15:23:22.658Z,6.30
2022-08-18T15:25:54.978Z,6.00
2022-08-18T15:28:27.523Z,5.90
2022-08-18T15:33:51.393Z,6.00
2022-08-18T15:36:28.959Z,5.70
2022-08-18T15:38:59.564Z,6.00
2022-08-18T15:41:32.548Z,6.30
2022-08-18T15:44:07.426Z,5.80
2022-08-18T15:46:39.234Z,5.40
2022-08-18T15:49:14.877Z,7.40
2022-08-18T15:51:45.662Z,6.40
2022-08-18T15:54:15.526Z,5.80
2022-08-18T15:56:45.305Z,5.70
2022-08-18T15:59:34.099Z,5.80
2022-08-18T16:02:11.893Z,6.50
2022-08-18T16:04:48.012Z,6.00
2022-08-18T16:07:25.082Z,5.70
2022-08-18T16:10:02.682Z,5.70
2022-08-18T16:12:32.411Z,6.30
2022-08-18T16:15:04.515Z,5.70
2022-08-18T16:17:37.564Z,5.80
2022-08-18T16:20:10.670Z,6.00
2022-08-18T16:22:40.663Z,5.30
2022-08-18T16:25:11.313Z,5.60
2022-08-18T16:27:41.647Z,5.50
2022-08-18T16:30:14.127Z,5.50
2022-08-18T16:32:47.059Z,5.20
2022-08-18T16:35:18.368Z,5.50
2022-08-18T16:37:49.298Z,5.20
2022-08-18T16:40:21.067Z,5.10
2022-08-18T16:42:55.417Z,6.30
2022-08-18T16:45:25.148Z,5.20
2022-08-18T16:47:56.720Z,5.70
2022-08-18T16:50:27.086Z,5.10
2022-08-18T16:52:57.869Z,5.10
2022-08-18T16:55:30.669Z,5.50
2022-08-18T16:58:19.840Z,5.70
2022-08-18T17:01:09.369Z,5.40
2022-08-18T17:03:58.680Z,5.60
2022-08-18T17:06:28.841Z,5.60
2022-08-18T17:09:02.773Z,5.90
2022-08-18T17:11:48.120Z,5.70
2022-08-18T17:14:22.436Z,6.50
2022-08-18T17:16:54.612Z,5.80
2022-08-18T17:19:26.499Z,5.70
2022-08-18T17:21:56.513Z,6.30
2022-08-18T17:24:32.176Z,6.30
2022-08-18T17:27:25.790Z,6.00
2022-08-18T17:30:03.262Z,6.20
2022-08-18T17:32:42.218Z,6.40
2022-08-18T17:35:15.497Z,7.00
2022-08-18T17:37:52.062Z,6.40
2022-08-18T17:40:31.273Z,6.50
2022-08-18T17:43:06.162Z,6.40
2022-08-18T17:45:39.042Z,6.90
2022-08-18T17:48:14.000Z,6.80
2022-08-18T17:51:07.003Z,6.30
2022-08-18T17:53:40.422Z,5.80
2022-08-18T17:56:18.631Z,6.10
2022-08-18T17:58:56.186Z,6.80
2022-08-18T18:01:28.899Z,6.90
2022-08-18T18:06:38.420Z,5.80
2022-08-18T18:09:10.467Z,6.30
2022-08-18T18:11:43.629Z,6.80
2022-08-18T18:14:29.791Z,5.90
2022-08-18T18:17:10.869Z,6.20
2022-08-18T18:19:46.633Z,6.40
2022-08-18T18:22:23.703Z,7.30
2022-08-18T18:24:57.113Z,6.40
2022-08-18T18:27:30.292Z,6.20
2022-08-18T18:30:05.741Z,6.20
2022-08-18T18:32:49.163Z,6.30
2022-08-18T18:35:34.041Z,6.80
2022-08-18T18:38:22.991Z,6.50
2022-08-18T18:40:59.762Z,6.60
2022-08-18T18:43:36.633Z,6.90
2022-08-18T18:46:29.942Z,6.50
2022-08-18T18:51:43.775Z,6.70
2022-08-18T18:54:26.848Z,7.30
2022-08-18T18:56:57.745Z,6.60
2022-08-18T18:59:41.305Z,7.60
2022-08-18T19:02:33.543Z,7.40
2022-08-18T19:05:18.485Z,7.00
2022-08-18T19:08:16.874Z,7.80
2022-08-18T19:10:56.193Z,6.50
2022-08-18T19:13:34.919Z,7.50
2022-08-18T19:16:23.490Z,7.50
2022-08-18T19:19:38.306Z,7.30
2022-08-18T19:22:04.549Z,8.00
2022-08-18T19:24:48.233Z,8.30
2022-08-18T19:27:27.797Z,8.20
2022-08-18T19:30:08.452Z,8.20
2022-08-18T19:32:43.897Z,8.00
2022-08-18T19:35:19.592Z,7.90
2022-08-18T19:38:04.452Z,8.10
2022-08-18T19:40:41.937Z,8.00
2022-08-18T19:43:30.124Z,9.00
2022-08-18T19:46:10.618Z,9.10
2022-08-18T19:48:51.021Z,9.10
2022-08-18T19:51:28.903Z,9.70
2022-08-18T19:54:12.832Z,9.50
2022-08-18T19:57:03.177Z,9.20
2022-08-18T19:59:51.162Z,9.90
2022-08-18T20:02:33.524Z,9.30
2022-08-18T20:05:20.773Z,10.40
2022-08-18T20:08:29.923Z,9.80
2022-08-18T20:11:41.249Z,9.80
2022-08-18T20:14:17.088Z,10.60
2022-08-18T20:17:16.743Z,11.20
2022-08-18T20:20:06.196Z,11.40
2022-08-18T20:22:42.003Z,10.50
2022-08-18T20:25:42.941Z,11.50
2022-08-18T20:28:32.664Z,11.00
2022-08-18T20:31:12.123Z,10.90
2022-08-18T20:33:46.531Z,10.30
2022-08-18T20:36:31.685Z,10.90
2022-08-18T20:39:32.821Z,10.10
2022-08-18T20:42:03.534Z,11.40
2022-08-18T20:44:57.503Z,10.40
2022-08-18T20:47:42.654Z,11.20
2022-08-18T20:50:43.001Z,10.90
2022-08-18T20:53:25.614Z,12.00
2022-08-18T20:56:12.890Z,11.20
2022-08-18T20:58:57.368Z,10.00
2022-08-18T21:01:29.613Z,10.40
2022-08-18T21:04:02.507Z,10.30
2022-08-18T21:09:05.259Z,10.00
2022-08-18T21:11:42.542Z,10.10
2022-08-18T21:14:23.273Z,10.90
2022-08-18T21:16:53.379Z,10.60
2022-08-18T21:19:25.481Z,10.70
2022-08-18T21:21:57.851Z,11.00
2022-08-18T21:24:34.526Z,10.80
2022-08-18T21:27:08.160Z,9.80
2022-08-18T21:29:47.550Z,10.50
2022-08-18T21:32:23.981Z,10.20
2022-08-18T21:34:54.122Z,11.00
2022-08-18T21:37:23.980Z,10.90
2022-08-18T21:39:56.211Z,11.50
2022-08-18T21:42:31.299Z,11.30
2022-08-18T21:45:01.449Z,10.70
2022-08-18T21:47:33.474Z,10.80
2022-08-18T21:50:10.231Z,11.20
2022-08-18T21:52:50.562Z,11.10
2022-08-18T21:55:26.507Z,11.20
2022-08-18T21:58:07.404Z,11.50
2022-08-18T22:00:40.111Z,11.90
2022-08-18T22:03:27.024Z,12.10
2022-08-18T22:06:03.118Z,10.70
2022-08-18T22:08:46.534Z,11.30
2022-08-18T22:12:01.014Z,12.10
2022-08-18T22:14:53.877Z,11.50
2022-08-18T22:17:32.562Z,11.50
2022-08-18T22:20:36.382Z,12.40
2022-08-18T22:23:42.460Z,12.00
2022-08-18T22:26:20.024Z,11.80
2022-08-18T22:29:00.574Z,11.30
2022-08-18T22:31:32.523Z,12.20
2022-08-18T22:34:06.865Z,12.00
2022-08-18T22:36:39.823Z,12.30
2022-08-18T22:41:41.900Z,12.00
2022-08-18T22:44:11.624Z,12.50
2022-08-18T22:46:41.522Z,12.80
2022-08-18T22:49:11.011Z,11.90
2022-08-18T22:51:40.851Z,12.30
2022-08-18T22:54:14.415Z,12.10
2022-08-18T22:56:53.949Z,12.30
2022-08-18T22:59:26.859Z,12.10
2022-08-18T23:01:59.382Z,12.60
2022-08-18T23:04:29.180Z,12.00
2022-08-18T23:07:00.108Z,12.00
2022-08-18T23:09:31.870Z,12.60
2022-08-18T23:12:04.651Z,12.60
2022-08-18T23:14:34.892Z,13.30
2022-08-18T23:17:06.802Z,13.00
2022-08-18T23:19:36.484Z,12.80
2022-08-18T23:22:08.530Z,12.20
2022-08-18T23:24:38.491Z,11.30
2022-08-18T23:27:09.070Z,11.40
2022-08-18T23:29:40.891Z,12.30
2022-08-18T23:32:10.711Z,12.30
2022-08-18T23:34:40.812Z,12.00
2022-08-18T23:37:11.021Z,13.20
2022-08-18T23:39:43.472Z,12.20
2022-08-18T23:42:13.751Z,12.60
2022-08-18T23:44:43.372Z,11.00
2022-08-18T23:47:13.191Z,12.30
2022-08-18T23:49:42.772Z,12.20
2022-08-18T23:52:12.407Z,12.10
2022-08-18T23:54:54.170Z,12.60
2022-08-18T23:57:23.702Z,12.70
2022-08-18T23:59:56.310Z,14.10
